Time;durP1;ratioP1;P1;durP2;ratioP2;P2;SDS_P1;SDS_P2;PMS_P1;PMS_P2;Temp;Humidity;BMP_temperature;BMP_pressure;BME280_temperature;BME280_humidity;BME280_pressure;Samples;Min_cycle;Max_cycle;Signal;HPM_P1;HPM_P2
2022/06/17 00:00:50;;;;;;;8.10;5.00;;;;;;;19.20;73.94;99588.78;4974335;28;20549;-84
2022/06/17 00:03:16;;;;;;;8.93;5.83;;;;;;;18.33;74.93;99457.63;4957566;28;20228;-84
2022/06/17 00:05:42;;;;;;;10.67;6.30;;;;;;;17.37;74.54;99286.34;4954646;29;20177;-85
2022/06/17 00:08:17;;;;;;;14.63;6.13;;;;;;;19.09;75.15;99574.97;4954479;29;20573;-85
2022/06/17 00:10:42;;;;;;;8.53;5.90;;;;;;;17.23;75.36;99285.25;4954390;29;20834;-85
2022/06/17 00:13:14;;;;;;;9.03;5.90;;;;;;;18.11;75.77;99420.59;4954412;29;20200;-85
2022/06/17 00:15:40;;;;;;;7.80;5.77;;;;;;;18.97;75.81;99562.84;4954405;29;20161;-84
2022/06/17 00:18:06;;;;;;;10.33;5.90;;;;;;;18.06;75.92;99415.41;4954122;29;20169;-85
2022/06/17 00:20:34;;;;;;;6.70;5.87;;;;;;;18.16;76.63;99429.22;4954396;29;20303;-85
2022/06/17 00:23:00;;;;;;;8.07;6.00;;;;;;;18.89;78.59;99574.69;4954371;29;20157;-85
2022/06/17 00:25:33;;;;;;;9.87;6.50;;;;;;;18.79;80.20;99555.75;4953394;29;20176;-85
2022/06/17 00:27:59;;;;;;;9.37;7.20;;;;;;;18.74;80.93;99553.97;4954633;29;20173;-85
2022/06/17 00:30:28;;;;;;;10.57;7.03;;;;;;;18.75;81.62;99556.56;4954335;29;20224;-85
2022/06/17 00:32:55;;;;;;;10.20;7.03;;;;;;;17.35;82.01;99318.72;4954799;29;20197;-85
2022/06/17 00:35:22;;;;;;;9.73;7.07;;;;;;;16.86;81.40;99240.38;4954504;29;20164;-85
2022/06/17 00:37:48;;;;;;;8.30;6.83;;;;;;;18.28;81.36;99472.97;4954229;29;20188;-85
2022/06/17 00:40:20;;;;;;;9.60;7.03;;;;;;;16.40;81.42;99172.25;4953142;29;20593;-85
2022/06/17 00:42:47;;;;;;;8.50;6.93;;;;;;;18.07;81.75;99427.41;4954597;29;20240;-84
2022/06/17 00:45:48;;;;;;;8.13;6.60;;;;;;;17.37;81.50;99301.69;4954593;29;20209;-85
2022/06/17 00:48:31;;;;;;;10.20;6.47;;;;;;;17.77;81.61;99364.63;4858124;29;20191;-85
2022/06/17 00:50:58;;;;;;;10.27;7.27;;;;;;;18.81;81.77;99553.22;4858252;29;20851;-85
2022/06/17 00:53:31;;;;;;;9.00;6.63;;;;;;;17.87;82.51;99392.94;4858002;29;20298;-85
2022/06/17 00:56:13;;;;;;;11.67;7.07;;;;;;;17.77;82.88;99385.97;4857891;29;20176;-85
2022/06/17 00:59:00;;;;;;;10.07;6.60;;;;;;;18.85;83.07;99554.97;4857734;29;20191;-85
2022/06/17 01:01:27;;;;;;;11.37;6.90;;;;;;;17.81;82.79;99367.25;4858990;29;20222;-85
2022/06/17 01:03:55;;;;;;;12.27;6.80;;;;;;;18.97;82.41;99547.44;4876597;29;20179;-85
2022/06/17 01:06:26;;;;;;;12.97;6.70;;;;;;;18.65;81.90;99495.72;4876186;29;20342;-85
2022/06/17 01:11:42;;;;;;;11.30;7.07;;;;;;;16.40;83.68;99174.81;4876005;29;20247;-85
2022/06/17 01:14:11;;;;;;;8.67;7.00;;;;;;;16.62;84.21;99210.13;4875810;29;21012;-85
2022/06/17 01:16:39;;;;;;;12.40;6.97;;;;;;;18.44;84.85;99505.66;4876084;29;20183;-85
2022/06/17 01:19:23;;;;;;;10.90;6.57;;;;;;;18.06;84.80;99455.53;4875764;29;20199;-85
2022/06/17 01:21:57;;;;;;;11.47;7.33;;;;;;;17.40;85.41;99341.00;4875922;29;20813;-86
2022/06/17 01:24:24;;;;;;;8.37;7.20;;;;;;;18.52;84.80;99533.97;4899294;29;20184;-85
2022/06/17 01:26:50;;;;;;;9.17;6.53;;;;;;;17.78;85.44;99418.41;4972500;28;20238;-85
2022/06/17 01:29:15;;;;;;;10.17;7.10;;;;;;;15.10;85.65;98946.19;4972634;28;20255;-85
2022/06/17 01:31:51;;;;;;;9.83;6.60;;;;;;;18.43;87.34;99531.28;4972630;28;20665;-85
2022/06/17 01:34:18;;;;;;;8.63;6.77;;;;;;;18.38;88.04;99530.31;4972642;28;20183;-85
2022/06/17 01:36:45;;;;;;;8.67;6.80;;;;;;;15.60;88.03;99048.31;4972645;28;20517;-85
2022/06/17 01:39:14;;;;;;;9.60;7.10;;;;;;;16.47;88.56;99205.63;4972814;28;20657;-84
2022/06/17 01:41:42;;;;;;;12.97;9.23;;;;;;;15.61;88.90;99053.41;4972735;28;20156;-85
2022/06/17 01:44:12;;;;;;;16.50;8.47;;;;;;;18.34;89.60;99518.31;4972651;28;20168;-85
2022/06/17 01:46:41;;;;;;;11.83;7.80;;;;;;;18.36;89.32;99539.69;4973174;28;20168;-86
2022/06/17 01:49:16;;;;;;;12.77;7.17;;;;;;;15.64;88.27;99042.41;4982710;28;20656;-86
2022/06/17 01:51:47;;;;;;;15.90;7.47;;;;;;;17.88;87.67;99398.94;4997000;28;20179;-86
2022/06/17 01:54:20;;;;;;;12.27;7.57;;;;;;;14.78;88.76;98901.38;4997497;28;20188;-85
2022/06/17 01:56:48;;;;;;;10.73;7.27;;;;;;;18.49;89.27;99518.56;4995432;28;20172;-86
2022/06/17 01:59:21;;;;;;;13.30;7.40;;;;;;;16.94;88.36;99249.03;4980269;28;20653;-85
2022/06/17 02:01:51;;;;;;;10.93;7.03;;;;;;;16.29;87.56;99135.44;4975308;28;20224;-84
2022/06/17 02:04:23;;;;;;;10.47;7.13;;;;;;;17.50;87.86;99332.63;4977225;28;20172;-84
2022/06/17 02:07:05;;;;;;;12.03;7.03;;;;;;;18.57;87.66;99512.69;4976447;28;20637;-85
2022/06/17 02:09:31;;;;;;;10.87;7.03;;;;;;;18.57;87.04;99517.00;4976427;28;20175;-85
2022/06/17 02:12:01;;;;;;;9.10;7.03;;;;;;;16.83;87.70;99236.06;4975956;28;20172;-84
2022/06/17 02:14:27;;;;;;;11.57;7.33;;;;;;;17.73;88.07;99389.31;4976338;28;20242;-83
2022/06/17 02:16:54;;;;;;;11.77;7.33;;;;;;;17.72;88.03;99381.63;4975954;28;20187;-82
2022/06/17 02:19:23;;;;;;;10.90;7.43;;;;;;;18.55;87.53;99519.50;4976120;28;20543;-84
2022/06/17 02:22:01;;;;;;;12.30;7.20;;;;;;;17.55;88.80;99373.69;4975901;28;20172;-83
2022/06/17 02:24:26;;;;;;;15.57;7.57;;;;;;;18.49;88.73;99523.69;4975650;28;20164;-83
2022/06/17 02:26:53;;;;;;;11.37;7.70;;;;;;;16.32;88.07;99150.81;4975907;28;20546;-83
2022/06/17 02:29:21;;;;;;;14.60;8.17;;;;;;;18.31;88.63;99483.25;4975781;28;20160;-83
2022/06/17 02:31:47;;;;;;;11.57;7.83;;;;;;;17.38;88.09;99335.00;4975640;28;20180;-84
2022/06/17 02:34:16;;;;;;;11.20;8.13;;;;;;;14.90;88.12;98900.75;4981898;28;20235;-82
2022/06/17 02:36:52;;;;;;;12.43;8.30;;;;;;;18.41;89.56;99520.13;4983706;28;20553;-84
2022/06/17 02:39:18;;;;;;;11.47;9.90;;;;;;;17.59;91.02;99403.59;4975873;28;20167;-84
2022/06/17 02:41:46;;;;;;;11.77;10.40;;;;;;;17.44;92.74;99390.53;4975726;28;20190;-84
2022/06/17 02:44:32;;;;;;;15.23;10.67;;;;;;;17.28;94.85;99391.13;4975653;28;20156;-84
2022/06/17 02:47:00;;;;;;;15.87;11.60;;;;;;;16.95;95.71;99341.09;4976374;28;20171;-84
2022/06/17 02:49:30;;;;;;;15.73;11.07;;;;;;;18.10;95.31;99527.34;4976730;28;20168;-85
2022/06/17 02:51:57;;;;;;;16.53;11.83;;;;;;;17.81;96.89;99531.16;4975173;28;20601;-85
2022/06/17 02:54:46;;;;;;;15.80;11.77;;;;;;;16.53;96.45;99276.44;4975190;28;20231;-84
2022/06/17 02:57:19;;;;;;;17.63;11.97;;;;;;;17.76;97.20;99501.19;4975126;28;20175;-85
2022/06/17 02:59:50;;;;;;;13.10;11.70;;;;;;;18.07;96.55;99527.34;4975364;28;20251;-84
2022/06/17 03:02:27;;;;;;;13.50;11.20;;;;;;;17.44;96.49;99418.69;4974775;28;20227;-84
2022/06/17 03:04:53;;;;;;;15.47;12.17;;;;;;;18.20;95.55;99536.94;4975001;28;20163;-84
2022/06/17 03:07:21;;;;;;;14.53;12.20;;;;;;;17.65;96.35;99457.47;4974917;28;20152;-85
2022/06/17 03:09:47;;;;;;;15.57;11.87;;;;;;;15.39;95.30;99064.03;4974863;28;20537;-85
2022/06/17 03:12:25;;;;;;;17.50;11.90;;;;;;;15.81;95.55;99149.09;4974253;28;20560;-85
2022/06/17 03:15:03;;;;;;;20.87;12.67;;;;;;;18.25;95.38;99535.28;4973349;28;20196;-85
2022/06/17 03:17:30;;;;;;;15.57;11.37;;;;;;;16.10;94.21;99141.94;4974746;28;20179;-85
2022/06/17 03:20:00;;;;;;;15.43;12.47;;;;;;;18.31;93.42;99524.28;4974748;28;20172;-85
2022/06/17 03:22:26;;;;;;;14.50;12.20;;;;;;;15.83;93.53;99128.69;4974532;28;20176;-85
2022/06/17 03:25:06;;;;;;;18.67;13.50;;;;;;;18.14;94.83;99541.09;4974826;28;20171;-86
2022/06/17 03:27:41;;;;;;;16.73;13.30;;;;;;;16.84;95.32;99352.84;4976475;28;20789;-85
2022/06/17 03:30:10;;;;;;;16.47;13.43;;;;;;;18.21;94.80;99553.16;4973447;28;20164;-86
2022/06/17 03:32:42;;;;;;;16.67;13.70;;;;;;;17.85;96.99;99575.63;4974429;28;20172;-85
2022/06/17 03:35:17;;;;;;;21.07;14.43;;;;;;;17.98;96.17;99554.50;4974612;28;20168;-85
2022/06/17 03:37:56;;;;;;;18.83;15.00;;;;;;;18.09;95.22;99556.41;4974180;28;20210;-85
2022/06/17 03:40:58;;;;;;;17.90;15.17;;;;;;;18.22;94.61;99562.56;4974399;28;20168;-85
2022/06/17 03:43:28;;;;;;;17.97;14.77;;;;;;;18.15;92.92;99505.25;4898899;29;20185;-84
2022/06/17 03:46:03;;;;;;;18.97;14.87;;;;;;;18.46;92.91;99560.38;4915221;29;20264;-86
2022/06/17 03:48:32;;;;;;;17.87;14.33;;;;;;;18.52;92.75;99551.94;4914694;29;20667;-85
2022/06/17 03:50:57;;;;;;;19.93;15.37;;;;;;;17.29;92.67;99346.78;4915512;29;20253;-87
2022/06/17 03:53:23;;;;;;;18.67;14.70;;;;;;;18.56;92.79;99556.28;4914639;29;20741;-87
2022/06/17 03:55:50;;;;;;;19.57;15.27;;;;;;;16.85;92.01;99284.66;4914744;29;20181;-87
2022/06/17 03:58:18;;;;;;;18.73;15.23;;;;;;;16.61;91.72;99221.22;4914819;29;20202;-87
2022/06/17 04:00:51;;;;;;;20.47;15.47;;;;;;;15.74;91.38;99114.06;4915273;29;20664;-87
2022/06/17 04:03:20;;;;;;;20.40;15.30;;;;;;;18.39;90.33;99552.56;4914474;29;20346;-86
2022/06/17 04:05:52;;;;;;;18.47;14.87;;;;;;;17.46;92.90;99446.03;4914520;29;20233;-87
2022/06/17 04:08:18;;;;;;;19.37;15.03;;;;;;;17.91;92.53;99497.16;4914427;29;20613;-87
2022/06/17 04:10:43;;;;;;;17.27;13.63;;;;;;;16.83;89.91;99289.75;4915420;29;20174;-86
2022/06/17 04:13:15;;;;;;;15.10;12.80;;;;;;;18.42;89.14;99529.53;4918217;29;20248;-83
2022/06/17 04:16:13;;;;;;;18.30;12.73;;;;;;;18.45;88.35;99552.66;4951372;29;20200;-84
2022/06/17 04:18:38;;;;;;;18.57;12.53;;;;;;;17.44;87.61;99381.16;4965871;28;20368;-84
2022/06/17 04:21:06;;;;;;;18.90;12.90;;;;;;;17.97;87.14;99446.03;4991794;28;20286;-84
2022/06/17 04:23:34;;;;;;;17.33;12.47;;;;;;;17.03;86.89;99275.59;4991757;28;20179;-84
2022/06/17 04:26:06;;;;;;;15.90;12.53;;;;;;;18.91;86.09;99560.19;4991971;28;20249;-84
2022/06/17 04:28:43;;;;;;;16.07;12.47;;;;;;;19.14;85.46;99557.91;4991948;28;20301;-84
2022/06/17 04:31:15;;;;;;;14.33;11.20;;;;;;;18.48;86.43;99514.28;4980707;28;20183;-83
2022/06/17 04:34:01;;;;;;;16.00;11.73;;;;;;;18.82;85.80;99534.41;4979805;28;20591;-83
2022/06/17 04:36:39;;;;;;;10.97;9.87;;;;;;;18.86;83.69;99507.97;5015963;28;20246;-83
2022/06/17 04:39:27;;;;;;;15.47;9.77;;;;;;;19.38;82.35;99563.34;5000169;28;20186;-84
2022/06/17 04:41:56;;;;;;;15.87;10.13;;;;;;;19.56;81.81;99558.41;4993433;28;20163;-84
2022/06/17 04:44:22;;;;;;;16.07;9.73;;;;;;;18.89;80.57;99461.81;5000971;28;20186;-85
2022/06/17 04:47:09;;;;;;;14.67;9.50;;;;;;;19.57;80.10;99551.56;5003757;28;20639;-85
2022/06/17 04:49:38;;;;;;;13.10;9.43;;;;;;;18.76;79.52;99422.31;4995705;28;20229;-84
2022/06/17 04:52:11;;;;;;;13.43;9.03;;;;;;;19.19;78.63;99480.13;4993144;28;20585;-87
2022/06/17 04:54:39;;;;;;;12.73;9.27;;;;;;;19.20;79.12;99486.94;4997619;28;20183;-84
2022/06/17 04:57:05;;;;;;;12.97;9.27;;;;;;;16.19;80.93;99044.19;4999198;28;20742;-84
2022/06/17 04:59:40;;;;;;;13.37;9.23;;;;;;;19.53;79.47;99554.97;5000812;28;20163;-84
2022/06/17 05:02:24;;;;;;;12.33;9.73;;;;;;;19.54;78.48;99502.72;5000230;28;20233;-84
2022/06/17 05:04:52;;;;;;;14.37;10.67;;;;;;;19.26;77.03;99401.44;5002162;28;20184;-83
2022/06/17 05:07:18;;;;;;;12.27;8.70;;;;;;;19.28;75.89;99508.44;4998040;28;20160;-83
2022/06/17 05:09:49;;;;;;;12.60;9.23;;;;;;;18.02;77.91;99372.66;4998325;28;20168;-83
2022/06/17 05:12:27;;;;;;;12.50;9.17;;;;;;;19.50;79.04;99568.63;5000112;28;20159;-84
2022/06/17 05:15:06;;;;;;;15.20;12.30;;;;;;;20.05;77.86;99564.88;4997705;28;20647;-84
2022/06/17 05:17:32;;;;;;;15.17;11.00;;;;;;;20.04;78.18;99568.28;4996274;28;20537;-84
2022/06/17 05:19:57;;;;;;;15.67;11.80;;;;;;;19.29;78.62;99419.44;4996508;28;20163;-83
2022/06/17 05:22:30;;;;;;;19.00;10.97;;;;;;;18.93;77.47;99307.06;4996761;28;20167;-83
2022/06/17 05:24:57;;;;;;;14.27;10.73;;;;;;;19.05;78.29;99362.75;4996285;28;20163;-84
2022/06/17 05:27:22;;;;;;;12.10;10.13;;;;;;;19.53;79.78;99572.94;4998365;28;20159;-84
2022/06/17 05:29:48;;;;;;;11.77;10.53;;;;;;;18.90;78.86;99401.94;4980486;28;20628;-84
2022/06/17 05:32:18;;;;;;;13.27;10.30;;;;;;;19.60;80.51;99549.91;4997424;28;20539;-84
2022/06/17 05:34:45;;;;;;;16.67;10.80;;;;;;;19.90;78.35;99501.34;4980535;28;20273;-85
2022/06/17 05:37:10;;;;;;;13.10;11.20;;;;;;;19.36;77.05;99413.53;4994831;28;20186;-85
2022/06/17 05:39:36;;;;;;;21.73;15.83;;;;;;;19.76;79.03;99463.53;4996175;28;20222;-86
2022/06/17 05:42:01;;;;;;;18.17;14.37;;;;;;;20.67;77.58;99564.47;5000023;28;20192;-83
2022/06/17 05:44:27;;;;;;;18.77;13.07;;;;;;;20.84;77.16;99565.44;5011076;28;20210;-83
2022/06/17 05:46:52;;;;;;;18.10;13.13;;;;;;;19.45;78.65;99348.59;5006477;28;20283;-83
2022/06/17 05:49:17;;;;;;;17.00;13.53;;;;;;;20.55;79.11;99532.69;5002142;28;20191;-83
2022/06/17 05:51:43;;;;;;;17.57;12.90;;;;;;;21.00;77.73;99567.22;4999951;28;20191;-83
2022/06/17 05:54:09;;;;;;;16.27;13.47;;;;;;;21.06;77.01;99559.53;4979567;28;20225;-83
2022/06/17 05:56:34;;;;;;;17.23;13.43;;;;;;;20.84;76.95;99513.97;5010761;28;20184;-82
2022/06/17 05:59:00;;;;;;;20.70;13.50;;;;;;;20.90;76.23;99485.69;5004170;28;20291;-82
2022/06/17 06:01:25;;;;;;;18.17;13.00;;;;;;;20.32;76.05;99377.41;5015202;28;20226;-83
2022/06/17 06:03:51;;;;;;;14.23;12.07;;;;;;;21.65;74.98;99547.72;5016694;28;20231;-82
2022/06/17 06:06:16;;;;;;;16.53;12.63;;;;;;;20.98;75.55;99514.88;4979273;28;20261;-83
2022/06/17 06:08:41;;;;;;;15.17;12.87;;;;;;;20.25;77.27;99475.91;4997385;28;20183;-81
2022/06/17 06:11:07;;;;;;;18.03;13.07;;;;;;;20.52;78.67;99519.78;5012602;28;20179;-81
2022/06/17 06:13:33;;;;;;;16.97;13.30;;;;;;;20.73;77.80;99551.66;5011604;28;20956;-84
2022/06/17 06:16:02;;;;;;;15.67;12.90;;;;;;;18.76;78.55;99241.94;4991106;28;20186;-83
2022/06/17 06:18:34;;;;;;;16.57;12.97;;;;;;;19.72;75.72;99305.13;5004182;28;20201;-81
2022/06/17 06:21:04;;;;;;;16.73;12.60;;;;;;;20.43;76.63;99481.19;4991791;28;20180;-82
2022/06/17 06:23:29;;;;;;;16.27;12.33;;;;;;;21.01;75.45;99544.06;4990429;28;20171;-82
2022/06/17 06:25:54;;;;;;;13.80;12.33;;;;;;;20.83;75.53;99540.53;4994331;28;20186;-83
2022/06/17 06:28:23;;;;;;;13.70;12.10;;;;;;;20.49;76.84;99499.19;4990560;28;20198;-80
2022/06/17 06:31:17;;;;;;;14.83;12.27;;;;;;;20.62;75.25;99476.13;4995543;28;20213;-81
2022/06/17 06:33:42;;;;;;;15.83;12.73;;;;;;;20.64;75.70;99489.84;5000810;28;20210;-81
2022/06/17 06:36:07;;;;;;;18.53;12.30;;;;;;;21.75;71.55;99533.97;5010378;28;20185;-81
2022/06/17 06:38:33;;;;;;;13.83;11.60;;;;;;;21.99;69.01;99476.47;5007758;28;20219;-82
2022/06/17 06:40:59;;;;;;;15.80;12.37;;;;;;;21.71;70.92;99529.69;4979169;28;20222;-83
2022/06/17 06:43:24;;;;;;;14.43;12.03;;;;;;;22.30;70.17;99518.53;5000948;28;20219;-81
2022/06/17 06:45:51;;;;;;;13.33;11.93;;;;;;;22.37;67.99;99480.69;4990201;28;20181;-80
2022/06/17 06:48:20;;;;;;;15.83;11.33;;;;;;;22.70;68.21;99516.75;4989760;28;20197;-82
2022/06/17 06:50:45;;;;;;;15.80;11.67;;;;;;;22.41;68.72;99514.22;4991165;28;20187;-82
2022/06/17 06:53:11;;;;;;;13.60;11.70;;;;;;;22.16;69.07;99497.06;4989420;28;20334;-82
2022/06/17 06:55:37;;;;;;;11.80;10.57;;;;;;;22.23;67.52;99465.22;4988600;28;20191;-82
2022/06/17 06:58:09;;;;;;;13.33;10.73;;;;;;;22.24;66.85;99480.72;5000981;28;20270;-83
2022/06/17 07:00:43;;;;;;;15.03;10.80;;;;;;;22.81;66.80;99492.63;5014041;28;20178;-83
2022/06/17 07:03:09;;;;;;;18.00;10.83;;;;;;;23.53;64.48;99485.38;4974736;28;1123245;-82
2022/06/17 07:05:40;;;;;;;12.30;9.23;;;;;;;23.33;62.88;99469.09;5015217;28;20457;-82
2022/06/17 07:08:06;;;;;;;15.83;9.07;;;;;;;23.71;60.34;99409.38;5003689;28;20191;-82
2022/06/17 07:10:33;;;;;;;13.30;9.00;;;;;;;24.16;58.24;99454.69;4985398;28;20183;-81
2022/06/17 07:13:03;;;;;;;9.53;7.90;;;;;;;24.16;57.34;99423.63;4975554;28;20200;-83
2022/06/17 07:15:34;;;;;;;10.83;7.40;;;;;;;22.94;58.27;99327.31;4992152;28;20689;-84
2022/06/17 07:18:04;;;;;;;9.73;7.07;;;;;;;24.12;56.26;99464.19;4992242;28;20214;-83
2022/06/17 07:20:37;;;;;;;8.50;7.20;;;;;;;24.54;55.12;99465.47;4991800;28;20230;-82
2022/06/17 07:23:34;;;;;;;12.40;7.73;;;;;;;22.20;55.00;99037.97;4992611;28;20253;-85
2022/06/17 07:26:02;;;;;;;8.50;6.70;;;;;;;23.81;52.29;99311.06;4994410;28;20187;-84
2022/06/17 07:28:28;;;;;;;9.93;6.57;;;;;;;23.84;53.81;99440.28;4989615;28;20182;-84
2022/06/17 07:30:55;;;;;;;8.73;6.60;;;;;;;24.27;52.89;99430.41;4971110;28;20596;-82
2022/06/17 07:33:23;;;;;;;10.83;6.80;;;;;;;24.12;54.11;99434.91;4972418;28;20196;-81
2022/06/17 07:35:50;;;;;;;11.67;6.93;;;;;;;24.00;53.71;99356.53;4988934;28;20246;-82
2022/06/17 07:41:05;;;;;;;11.07;7.10;;;;;;;24.58;51.43;99460.25;4998577;28;20226;-83
2022/06/17 07:43:30;;;;;;;8.23;7.43;;;;;;;24.20;53.21;99458.97;4991013;28;20187;-81
2022/06/17 07:45:56;;;;;;;10.00;7.30;;;;;;;23.80;53.56;99417.94;4995391;28;20326;-83
2022/06/17 07:48:22;;;;;;;9.43;7.00;;;;;;;24.34;52.45;99394.97;4996705;28;20191;-83
2022/06/17 07:50:47;;;;;;;8.43;6.80;;;;;;;25.20;51.23;99450.84;4996029;28;20247;-81
2022/06/17 07:53:14;;;;;;;8.77;6.87;;;;;;;24.32;51.95;99370.84;4997607;28;20962;-84
2022/06/17 07:55:41;;;;;;;10.57;7.20;;;;;;;24.97;52.18;99448.56;4993740;28;20183;-84
2022/06/17 07:58:07;;;;;;;10.40;7.20;;;;;;;24.21;53.35;99377.88;4972005;28;20192;-81
2022/06/17 08:00:38;;;;;;;11.53;7.47;;;;;;;25.22;51.74;99447.34;4957400;28;20190;-82
2022/06/17 08:03:05;;;;;;;8.73;7.17;;;;;;;25.75;49.80;99424.94;4970492;28;20224;-82
2022/06/17 08:05:31;;;;;;;9.63;7.37;;;;;;;25.41;51.33;99429.75;4971915;28;20192;-81
2022/06/17 08:07:58;;;;;;;10.90;7.67;;;;;;;25.86;50.53;99448.94;4986193;28;20271;-81
2022/06/17 08:10:29;;;;;;;9.30;7.50;;;;;;;26.35;49.20;99454.13;4987744;28;20191;-82
2022/06/17 08:12:54;;;;;;;9.37;7.70;;;;;;;26.71;47.44;99456.00;4987646;28;20262;-81
2022/06/17 08:15:21;;;;;;;8.23;7.32;;;;;;;26.83;46.52;99395.19;4993231;28;20205;-83
2022/06/17 08:17:48;;;;;;;11.68;8.30;;;;;;;26.50;48.33;99440.00;4990836;28;20193;-82
2022/06/17 08:20:26;;;;;;;9.02;8.00;;;;;;;26.65;48.46;99437.09;4995403;28;20207;-81
2022/06/17 08:22:53;;;;;;;10.13;8.20;;;;;;;26.58;46.96;99430.31;4992631;28;20242;-81
2022/06/17 08:25:19;;;;;;;9.35;8.40;;;;;;;26.08;48.70;99439.03;4990795;28;20187;-81
2022/06/17 08:27:53;;;;;;;10.38;8.23;;;;;;;26.24;47.47;99381.66;4987897;28;20188;-80
2022/06/17 08:30:22;;;;;;;10.45;9.25;;;;;;;27.03;47.47;99437.16;4974255;28;20191;-80
2022/06/17 08:32:53;;;;;;;10.57;9.23;;;;;;;27.16;47.21;99445.56;4971722;28;20389;-81
2022/06/17 08:35:41;;;;;;;11.07;9.27;;;;;;;26.94;48.13;99403.59;4962709;28;20233;-83
2022/06/17 08:38:38;;;;;;;11.02;9.23;;;;;;;26.50;47.70;99292.00;4991563;28;20191;-81
2022/06/17 08:41:13;;;;;;;11.25;9.73;;;;;;;27.57;46.25;99432.47;4967556;28;20342;-82
2022/06/17 08:43:57;;;;;;;10.00;9.02;;;;;;;27.68;45.97;99435.66;4969652;28;20243;-82
2022/06/17 08:47:03;;;;;;;11.50;8.93;;;;;;;27.91;44.70;99433.31;4975440;28;20194;-82
2022/06/17 08:49:50;;;;;;;10.05;9.02;;;;;;;27.91;43.60;99438.53;4998574;28;20179;-81
2022/06/17 08:52:48;;;;;;;10.63;9.52;;;;;;;27.29;45.47;99440.03;5008142;28;20192;-81
2022/06/17 08:55:38;;;;;;;11.57;9.40;;;;;;;28.20;44.02;99442.16;4927754;29;20200;-83
2022/06/17 08:58:25;;;;;;;10.55;9.00;;;;;;;27.74;43.94;99380.88;4926677;29;20208;-81
2022/06/17 09:00:50;;;;;;;9.70;8.70;;;;;;;27.57;45.19;99431.59;4926438;29;20225;-82
2022/06/17 09:03:37;;;;;;;9.75;8.75;;;;;;;27.14;45.82;99437.78;4927032;29;20307;-82
2022/06/17 09:06:15;;;;;;;11.35;9.30;;;;;;;27.83;45.37;99432.66;4926745;29;20242;-82
2022/06/17 09:08:49;;;;;;;9.98;9.07;;;;;;;27.81;45.11;99431.84;4927110;29;20209;-81
2022/06/17 09:11:43;;;;;;;10.45;9.15;;;;;;;28.23;44.48;99429.03;4888855;29;20842;-81
2022/06/17 09:14:17;;;;;;;11.63;9.25;;;;;;;27.97;45.20;99434.91;4889287;29;20243;-82
2022/06/17 09:17:20;;;;;;;11.65;9.63;;;;;;;27.31;45.82;99435.66;4897655;29;20202;-82
2022/06/17 09:19:48;;;;;;;10.52;8.90;;;;;;;27.17;45.87;99422.09;4833796;29;20256;-81
2022/06/17 09:22:20;;;;;;;11.32;9.75;;;;;;;27.62;45.22;99434.94;4837597;29;20204;-82
2022/06/17 09:24:49;;;;;;;9.85;8.77;;;;;;;28.22;43.42;99416.91;4849918;29;20280;-83
2022/06/17 09:27:24;;;;;;;9.40;8.50;;;;;;;28.79;42.51;99430.09;4845093;29;20202;-82
2022/06/17 09:29:58;;;;;;;10.45;9.43;;;;;;;28.78;42.93;99430.97;4845137;29;20254;-82
2022/06/17 09:32:30;;;;;;;10.27;8.93;;;;;;;28.79;42.84;99424.88;4887310;29;20252;-82
2022/06/17 09:35:13;;;;;;;10.13;9.07;;;;;;;28.84;42.16;99422.97;4899588;29;20247;-81
2022/06/17 09:37:56;;;;;;;11.23;8.80;;;;;;;28.49;42.22;99427.41;4907525;29;20207;-82
2022/06/17 09:40:32;;;;;;;10.23;8.68;;;;;;;27.82;42.18;99344.22;4899217;29;20245;-82
2022/06/17 09:43:08;;;;;;;10.32;9.32;;;;;;;28.28;43.27;99401.97;4907636;29;20204;-83
2022/06/17 09:45:38;;;;;;;10.27;9.15;;;;;;;28.56;41.62;99324.75;4907838;29;20215;-82
2022/06/17 09:48:19;;;;;;;10.10;8.90;;;;;;;29.00;40.19;99372.09;4907591;29;20259;-83
2022/06/17 09:50:50;;;;;;;9.85;8.95;;;;;;;29.49;39.97;99397.47;4907376;29;20300;-80
2022/06/17 09:53:35;;;;;;;10.45;9.07;;;;;;;29.41;41.64;99400.34;4907803;29;20208;-79
2022/06/17 09:56:43;;;;;;;9.90;8.95;;;;;;;29.40;42.26;99403.84;4970477;28;20203;-81
2022/06/17 09:59:32;;;;;;;12.45;9.40;;;;;;;29.26;41.83;99395.59;4909699;29;20201;-80
2022/06/17 10:02:06;;;;;;;9.45;8.65;;;;;;;29.37;39.98;99383.06;4915887;29;20233;-79
2022/06/17 10:04:31;;;;;;;10.40;9.40;;;;;;;29.65;40.65;99398.66;4933177;29;20223;-80
2022/06/17 10:07:14;;;;;;;9.85;8.95;;;;;;;29.35;40.97;99397.06;4927241;29;20198;-80
2022/06/17 10:10:01;;;;;;;10.63;9.60;;;;;;;28.71;42.05;99390.34;4916123;29;20202;-81
2022/06/17 10:12:53;;;;;;;11.05;9.52;;;;;;;28.20;42.69;99351.88;4909343;29;20199;-81
2022/06/17 10:15:27;;;;;;;10.60;9.50;;;;;;;28.89;41.79;99382.84;4908344;29;20247;-82
2022/06/17 10:18:32;;;;;;;10.82;9.80;;;;;;;29.10;41.83;99379.56;4913846;29;20192;-84
2022/06/17 10:21:18;;;;;;;10.82;9.82;;;;;;;29.19;41.81;99374.06;4851660;29;20210;-84
2022/06/17 10:24:14;;;;;;;13.07;9.80;;;;;;;28.81;42.17;99339.66;4857885;29;20285;-82
2022/06/17 10:26:55;;;;;;;12.05;10.07;;;;;;;28.79;43.16;99370.16;4856735;29;20351;-82
2022/06/17 10:29:35;;;;;;;12.20;9.90;;;;;;;29.24;42.21;99360.91;4846876;29;20207;-81
2022/06/17 10:32:00;;;;;;;13.15;9.82;;;;;;;29.14;41.31;99313.38;4855739;29;20229;-81
2022/06/17 10:34:40;;;;;;;10.38;9.32;;;;;;;28.80;42.38;99366.63;4848518;29;20254;-80
2022/06/17 10:37:06;;;;;;;12.90;9.90;;;;;;;29.17;42.31;99359.38;4912567;29;20206;-80
2022/06/17 10:39:34;;;;;;;11.90;9.35;;;;;;;28.91;42.11;99364.53;4916269;29;20264;-78
2022/06/17 10:42:00;;;;;;;10.88;9.77;;;;;;;28.51;43.12;99357.06;4907971;29;20245;-80
2022/06/17 10:44:28;;;;;;;10.55;9.48;;;;;;;28.69;42.10;99361.72;4912914;29;20686;-81
2022/06/17 10:47:06;;;;;;;12.63;10.05;;;;;;;28.78;42.11;99318.91;4912273;29;20197;-81
2022/06/17 10:49:40;;;;;;;10.45;9.40;;;;;;;28.82;39.84;99357.00;4911737;29;20197;-80
2022/06/17 10:52:18;;;;;;;9.70;8.77;;;;;;;27.93;40.52;99317.03;4912966;29;20270;-81
2022/06/17 10:54:46;;;;;;;11.45;9.27;;;;;;;28.07;40.68;99324.47;4912270;29;20223;-82
2022/06/17 10:57:23;;;;;;;9.95;8.90;;;;;;;28.84;40.58;99352.59;4957325;28;20531;-81
2022/06/17 10:59:49;;;;;;;12.85;9.10;;;;;;;28.66;40.11;99278.44;5010807;28;20268;-82
2022/06/17 11:02:34;;;;;;;11.25;9.95;;;;;;;29.54;40.26;99344.22;5009966;28;20305;-80
2022/06/17 11:05:05;;;;;;;10.68;9.55;;;;;;;28.55;41.19;99263.13;5011467;28;20211;-82
2022/06/17 11:07:34;;;;;;;10.68;9.63;;;;;;;29.09;41.20;99340.50;5013772;28;20178;-81
2022/06/17 11:10:21;;;;;;;14.48;10.00;;;;;;;29.51;40.76;99348.69;5010695;28;20182;-82
2022/06/17 11:12:58;;;;;;;10.18;8.68;;;;;;;29.39;39.71;99329.09;4989860;28;20190;-81
2022/06/17 11:15:29;;;;;;;10.73;9.73;;;;;;;29.56;40.06;99344.16;4990383;28;20179;-81
2022/06/17 11:18:01;;;;;;;11.10;9.20;;;;;;;29.71;38.75;99346.25;4990448;28;20186;-80
2022/06/17 11:20:37;;;;;;;10.40;9.27;;;;;;;29.72;38.53;99343.56;4990443;28;20191;-82
2022/06/17 11:23:07;;;;;;;9.27;8.20;;;;;;;29.74;36.65;99338.31;4989806;28;20177;-83
2022/06/17 11:25:35;;;;;;;10.05;8.48;;;;;;;29.95;38.04;99341.94;4988990;28;20271;-82
2022/06/17 11:28:33;;;;;;;10.35;8.52;;;;;;;29.59;37.70;99331.00;4988698;28;20178;-81
2022/06/17 11:31:04;;;;;;;10.23;8.25;;;;;;;29.12;38.37;99302.13;4972699;28;20230;-81
2022/06/17 11:33:52;;;;;;;9.48;8.50;;;;;;;29.08;39.04;99287.50;5007308;28;20226;-80
2022/06/17 11:36:27;;;;;;;9.48;8.57;;;;;;;29.03;39.84;99314.63;4991228;28;20238;-81
2022/06/17 11:38:52;;;;;;;10.25;9.02;;;;;;;29.35;38.78;99277.91;4992097;28;20166;-82
2022/06/17 11:41:27;;;;;;;10.23;9.20;;;;;;;30.09;37.72;99317.06;4971974;28;20388;-81
2022/06/17 11:43:55;;;;;;;12.50;9.25;;;;;;;30.75;36.33;99316.28;4982225;28;20247;-81
2022/06/17 11:46:29;;;;;;;10.27;9.27;;;;;;;31.53;34.52;99298.28;4990468;28;20265;-81
2022/06/17 11:49:12;;;;;;;10.82;8.95;;;;;;;32.62;33.12;99309.94;4989377;28;20191;-83
2022/06/17 11:51:41;;;;;;;9.93;9.02;;;;;;;32.53;32.89;99294.63;4990087;28;20184;-80
2022/06/17 11:54:19;;;;;;;9.02;8.15;;;;;;;32.45;32.60;99296.72;4990632;28;20263;-82